createdAt,value
2017-08-11T00:01:14.007Z,100743.50
2017-08-11T00:03:41.411Z,100739.18
2017-08-11T00:06:08.812Z,100736.61
2017-08-11T00:08:36.232Z,100726.23
2017-08-11T00:11:03.639Z,100725.30
2017-08-11T00:13:31.034Z,100728.00
2017-08-11T00:15:58.450Z,100723.35
2017-08-11T00:18:25.847Z,100722.20
2017-08-11T00:20:53.252Z,100722.13
2017-08-11T00:23:20.662Z,100713.45
2017-08-11T00:25:48.066Z,100717.09
2017-08-11T00:28:15.476Z,100705.43
2017-08-11T00:30:42.927Z,100711.45
2017-08-11T00:33:10.323Z,100707.50
2017-08-11T00:35:37.722Z,100707.41
2017-08-11T00:38:05.139Z,100704.17
2017-08-11T00:40:32.539Z,100699.13
2017-08-11T00:42:59.939Z,100695.34
2017-08-11T00:45:27.360Z,100698.87
2017-08-11T00:47:54.755Z,100690.89
2017-08-11T00:50:22.149Z,100693.16
2017-08-11T00:52:49.824Z,100697.39
2017-08-11T00:55:17.224Z,100688.08
2017-08-11T00:57:44.627Z,100684.03
2017-08-11T01:00:12.035Z,100686.89
2017-08-11T01:02:39.436Z,100684.36
2017-08-11T01:05:06.843Z,100685.61
2017-08-11T01:07:34.264Z,100675.90
2017-08-11T01:10:01.659Z,100673.23
2017-08-11T01:12:29.064Z,100669.97
2017-08-11T01:14:56.480Z,100671.69
2017-08-11T01:17:23.883Z,100668.36
2017-08-11T01:19:51.279Z,100665.99
2017-08-11T01:22:18.834Z,100661.09
2017-08-11T01:24:46.237Z,100660.66
2017-08-11T01:27:13.631Z,100648.96
2017-08-11T01:29:41.053Z,100641.05
2017-08-11T01:32:08.447Z,100637.84
2017-08-11T01:34:35.843Z,100634.23
2017-08-11T01:37:03.263Z,100630.98
2017-08-11T01:39:30.664Z,100625.03
2017-08-11T01:41:58.062Z,100622.78
2017-08-11T01:44:25.475Z,100623.36
2017-08-11T01:46:52.880Z,100625.25
2017-08-11T01:49:20.274Z,100615.42
2017-08-11T01:51:47.695Z,100622.28
2017-08-11T01:54:15.096Z,100618.78
2017-08-11T01:56:42.495Z,100623.91
2017-08-11T01:59:09.919Z,100616.09
2017-08-11T02:01:37.314Z,100619.71
2017-08-11T02:04:04.714Z,100608.70
2017-08-11T02:06:32.127Z,100618.53
2017-08-11T02:08:59.523Z,100618.37
2017-08-11T02:11:26.936Z,100621.16
2017-08-11T02:13:54.348Z,100623.41
2017-08-11T02:16:21.743Z,100628.27
2017-08-11T02:18:49.151Z,100631.25
2017-08-11T02:21:16.571Z,100632.53
2017-08-11T02:23:43.975Z,100624.74
2017-08-11T02:26:11.377Z,100635.57
2017-08-11T02:28:38.792Z,100635.31
2017-08-11T02:31:06.189Z,100622.98
2017-08-11T02:33:33.587Z,100609.73
2017-08-11T02:36:01.037Z,100607.25
2017-08-11T02:38:28.420Z,100611.87
2017-08-11T02:40:55.830Z,100608.11
2017-08-11T02:43:23.247Z,100609.75
2017-08-11T02:45:50.647Z,100606.48
2017-08-11T02:48:18.076Z,100600.53
2017-08-11T02:50:45.496Z,100592.23
2017-08-11T02:53:12.896Z,100598.45
2017-08-11T02:55:40.293Z,100594.00
2017-08-11T02:58:07.721Z,100589.68
2017-08-11T03:00:35.117Z,100582.93
2017-08-11T03:03:02.536Z,100580.37
2017-08-11T03:05:29.951Z,100591.09
2017-08-11T03:07:57.360Z,100589.81
2017-08-11T03:10:24.751Z,100584.98
2017-08-11T03:12:52.167Z,100583.92
2017-08-11T03:15:19.566Z,100584.36
2017-08-11T03:17:46.968Z,100584.84
2017-08-11T03:20:14.383Z,100577.70
2017-08-11T03:22:41.783Z,100582.66
2017-08-11T03:25:09.224Z,100577.57
2017-08-11T03:27:36.648Z,100575.03
2017-08-11T03:30:04.047Z,100571.51
2017-08-11T03:32:31.448Z,100571.44
2017-08-11T03:34:58.862Z,100576.54
2017-08-11T03:37:26.271Z,100576.44
2017-08-11T03:39:53.680Z,100570.84
2017-08-11T03:42:21.092Z,100577.98
2017-08-11T03:44:48.508Z,100570.94
2017-08-11T03:47:15.907Z,100572.13
2017-08-11T03:49:43.323Z,100569.34
2017-08-11T03:52:10.723Z,100565.75
2017-08-11T03:54:38.128Z,100569.08
2017-08-11T03:57:05.547Z,100567.95
2017-08-11T03:59:32.944Z,100566.31
2017-08-11T04:02:00.343Z,100566.89
2017-08-11T04:04:27.763Z,100564.91
2017-08-11T04:06:55.171Z,100564.12
2017-08-11T04:09:22.571Z,100560.03
2017-08-11T04:11:50.006Z,100560.25
2017-08-11T04:14:17.402Z,100556.63
2017-08-11T04:16:44.807Z,100556.05
2017-08-11T04:19:12.216Z,100557.05
2017-08-11T04:21:39.612Z,100558.94
2017-08-11T04:24:07.006Z,100564.17
2017-08-11T04:26:34.426Z,100562.60
2017-08-11T04:29:01.824Z,100552.03
2017-08-11T04:31:29.218Z,100548.73
2017-08-11T04:33:56.640Z,100544.61
2017-08-11T04:36:24.036Z,100531.23
2017-08-11T04:38:51.447Z,100526.23
2017-08-11T04:41:18.860Z,100526.07
2017-08-11T04:43:46.264Z,100528.22
2017-08-11T04:46:13.661Z,100527.52
2017-08-11T04:48:41.075Z,100533.78
2017-08-11T04:51:08.470Z,100529.24
2017-08-11T04:53:35.867Z,100535.20
2017-08-11T04:56:03.283Z,100545.12
2017-08-11T04:58:30.683Z,100552.06
2017-08-11T05:00:58.082Z,100560.16
2017-08-11T05:03:25.491Z,100560.28
2017-08-11T05:05:52.895Z,100561.78
2017-08-11T05:08:20.294Z,100555.98
2017-08-11T05:10:47.698Z,100550.82
2017-08-11T05:13:15.095Z,100561.14
2017-08-11T05:15:42.495Z,100568.87
2017-08-11T05:18:09.915Z,100569.22
2017-08-11T05:20:37.310Z,100568.51
2017-08-11T05:23:04.711Z,100572.00
2017-08-11T05:25:32.436Z,100576.09
2017-08-11T05:27:59.824Z,100578.02
2017-08-11T05:30:27.219Z,100572.34
2017-08-11T05:32:54.632Z,100569.53
2017-08-11T05:35:22.031Z,100564.57
2017-08-11T05:37:49.430Z,100572.55
2017-08-11T05:40:16.855Z,100574.97
2017-08-11T05:42:44.250Z,100584.45
2017-08-11T05:45:11.648Z,100575.17
2017-08-11T05:47:39.062Z,100566.47
2017-08-11T05:50:06.459Z,100569.19
2017-08-11T05:52:33.855Z,100568.45
2017-08-11T05:55:01.266Z,100564.28
2017-08-11T05:57:28.671Z,100561.38
2017-08-11T05:59:56.082Z,100553.14
2017-08-11T06:02:23.511Z,100552.23
2017-08-11T06:04:50.908Z,100554.20
2017-08-11T06:07:18.303Z,100555.41
2017-08-11T06:09:45.714Z,100551.44
2017-08-11T06:12:13.111Z,100549.04
2017-08-11T06:14:40.511Z,100548.05
2017-08-11T06:17:07.938Z,100543.42
2017-08-11T06:19:35.335Z,100542.63
2017-08-11T06:22:02.736Z,100539.38
2017-08-11T06:24:30.156Z,100538.04
2017-08-11T06:26:57.555Z,100544.44
2017-08-11T06:29:24.951Z,100548.54
2017-08-11T06:31:52.363Z,100543.23
2017-08-11T06:34:19.766Z,100539.62
2017-08-11T06:36:47.164Z,100539.16
2017-08-11T06:39:14.575Z,100540.86
2017-08-11T06:41:41.984Z,100541.85
2017-08-11T06:44:09.388Z,100544.41
2017-08-11T06:46:36.836Z,100541.05
2017-08-11T06:49:04.240Z,100538.78
2017-08-11T06:51:31.647Z,100537.64
2017-08-11T06:53:59.055Z,100540.29
2017-08-11T06:56:26.460Z,100535.83
2017-08-11T06:58:53.855Z,100535.39
2017-08-11T07:01:21.267Z,100534.88
2017-08-11T07:03:48.663Z,100533.68
2017-08-11T07:06:16.063Z,100531.66
2017-08-11T07:08:43.477Z,100526.56
2017-08-11T07:11:10.876Z,100526.27
2017-08-11T07:13:38.277Z,100521.26
2017-08-11T07:16:05.686Z,100529.69
2017-08-11T07:18:33.083Z,100534.72
2017-08-11T07:21:00.487Z,100537.36
2017-08-11T07:23:27.912Z,100543.99
2017-08-11T07:25:55.311Z,100555.87
2017-08-11T07:28:22.707Z,100554.30
2017-08-11T07:30:50.128Z,100550.75
2017-08-11T07:33:17.527Z,100554.48
2017-08-11T07:35:44.923Z,100558.81
2017-08-11T07:38:12.331Z,100564.89
2017-08-11T07:40:39.743Z,100567.92
2017-08-11T07:43:07.153Z,100561.75
2017-08-11T07:45:34.568Z,100562.47
2017-08-11T07:48:01.968Z,100568.16
2017-08-11T07:50:29.371Z,100570.16
2017-08-11T07:52:56.799Z,100573.92
2017-08-11T07:55:24.200Z,100573.58
2017-08-11T07:57:51.596Z,100572.28
2017-08-11T08:00:19.011Z,100567.62
2017-08-11T08:02:46.407Z,100567.90
2017-08-11T08:05:13.799Z,100563.42
2017-08-11T08:07:41.218Z,100574.31
2017-08-11T08:10:08.627Z,100575.86
2017-08-11T08:12:36.021Z,100573.38
2017-08-11T08:15:03.460Z,100569.71
2017-08-11T08:17:30.868Z,100572.67
2017-08-11T08:19:58.276Z,100573.29
2017-08-11T08:22:25.685Z,100574.54
2017-08-11T08:24:53.083Z,100572.72
2017-08-11T08:27:20.488Z,100574.07
2017-08-11T08:29:47.897Z,100571.94
2017-08-11T08:32:15.299Z,100576.19
2017-08-11T08:34:42.699Z,100573.14
2017-08-11T08:37:10.122Z,100569.23
2017-08-11T08:39:37.530Z,100560.66
2017-08-11T08:42:04.931Z,100559.92
2017-08-11T08:44:32.359Z,100562.08
2017-08-11T08:46:59.763Z,100555.02
2017-08-11T08:49:27.163Z,100554.29
2017-08-11T08:51:54.572Z,100554.66
2017-08-11T08:54:21.972Z,100556.73
2017-08-11T08:56:49.368Z,100557.09
2017-08-11T08:59:16.783Z,100564.66
2017-08-11T09:01:44.180Z,100567.31
2017-08-11T09:04:11.582Z,100561.83
2017-08-11T09:06:38.998Z,100565.53
2017-08-11T09:09:06.399Z,100570.01
2017-08-11T09:11:33.800Z,100569.05
2017-08-11T09:14:01.224Z,100570.35
2017-08-11T09:16:28.620Z,100571.97
2017-08-11T09:18:56.024Z,100576.50
2017-08-11T09:21:23.444Z,100586.41
2017-08-11T09:23:50.843Z,100594.70
2017-08-11T09:26:29.907Z,100595.30
2017-08-11T09:29:09.114Z,100592.53
2017-08-11T09:31:48.314Z,100585.84
2017-08-11T09:34:27.347Z,100590.09
2017-08-11T09:36:54.770Z,100594.50
2017-08-11T09:39:22.165Z,100591.61
2017-08-11T09:41:49.563Z,100588.92
2017-08-11T09:44:16.980Z,100585.84
2017-08-11T09:46:44.378Z,100579.76
2017-08-11T09:49:11.783Z,100579.66
2017-08-11T09:51:39.190Z,100573.52
2017-08-11T09:54:06.612Z,100569.85
2017-08-11T09:56:34.008Z,100571.33
2017-08-11T09:59:01.427Z,100568.77
2017-08-11T10:01:28.831Z,100576.84
2017-08-11T10:03:56.230Z,100580.39
2017-08-11T10:06:23.793Z,100583.84
2017-08-11T10:08:51.191Z,100585.59
2017-08-11T10:11:18.594Z,100583.91
2017-08-11T10:13:46.011Z,100589.44
2017-08-11T10:16:13.415Z,100591.55
2017-08-11T10:18:40.816Z,100591.69
2017-08-11T10:21:08.236Z,100598.70
2017-08-11T10:23:35.628Z,100603.63
2017-08-11T10:26:03.027Z,100596.66
2017-08-11T10:28:30.443Z,100592.05
2017-08-11T10:30:57.846Z,100600.17
2017-08-11T10:33:25.239Z,100601.42
2017-08-11T10:35:52.652Z,100600.34
2017-08-11T10:38:20.055Z,100602.24
2017-08-11T10:40:47.458Z,100593.89
2017-08-11T10:43:14.881Z,100593.91
2017-08-11T10:45:42.287Z,100589.03
2017-08-11T10:48:09.687Z,100592.13
2017-08-11T10:50:37.103Z,100596.92
2017-08-11T10:53:04.503Z,100594.21
2017-08-11T10:55:31.907Z,100589.98
2017-08-11T10:57:59.322Z,100588.69
2017-08-11T11:00:26.763Z,100593.91
2017-08-11T11:02:54.127Z,100591.07
2017-08-11T11:05:21.543Z,100592.90
2017-08-11T11:07:48.947Z,100592.36
2017-08-11T11:10:16.344Z,100594.52
2017-08-11T11:12:43.761Z,100588.23
2017-08-11T11:15:11.163Z,100587.84
2017-08-11T11:17:38.575Z,100590.23
2017-08-11T11:20:05.974Z,100589.59
2017-08-11T11:22:33.379Z,100584.64
2017-08-11T11:25:00.779Z,100581.61
2017-08-11T11:27:28.198Z,100575.14
2017-08-11T11:29:55.602Z,100571.02
2017-08-11T11:32:23.016Z,100569.14
2017-08-11T11:34:50.431Z,100564.73
2017-08-11T11:37:17.830Z,100570.90
2017-08-11T11:39:45.238Z,100569.55
2017-08-11T11:42:12.655Z,100564.61
2017-08-11T11:44:40.064Z,100561.55
2017-08-11T11:47:07.474Z,100562.94
2017-08-11T11:49:34.888Z,100561.48
2017-08-11T11:52:02.291Z,100559.45
2017-08-11T11:54:29.696Z,100556.83
2017-08-11T11:56:57.099Z,100556.07
2017-08-11T11:59:24.506Z,100554.20
2017-08-11T12:01:51.903Z,100553.98
2017-08-11T12:04:19.327Z,100549.53
2017-08-11T12:06:46.714Z,100554.98
2017-08-11T12:09:14.112Z,100554.11
2017-08-11T12:11:41.534Z,100550.05
2017-08-11T12:14:08.931Z,100549.38
2017-08-11T12:16:36.335Z,100547.23
2017-08-11T12:19:03.751Z,100550.62
2017-08-11T12:21:31.151Z,100557.28
2017-08-11T12:23:58.559Z,100566.06
2017-08-11T12:26:26.824Z,100565.63
2017-08-11T12:28:54.219Z,100570.61
2017-08-11T12:31:21.614Z,100568.05
2017-08-11T12:33:49.039Z,100566.69
2017-08-11T12:36:16.444Z,100563.72
2017-08-11T12:38:43.838Z,100563.70
2017-08-11T12:41:11.260Z,100559.58
2017-08-11T12:43:38.663Z,100556.39
2017-08-11T12:46:06.059Z,100548.13
2017-08-11T12:48:33.480Z,100549.39
2017-08-11T12:51:00.876Z,100543.56
2017-08-11T12:53:28.271Z,100539.06
2017-08-11T12:55:55.696Z,100543.66
2017-08-11T12:58:23.094Z,100552.59
2017-08-11T13:00:50.498Z,100560.08
2017-08-11T13:03:17.903Z,100557.44
2017-08-11T13:05:45.303Z,100555.54
2017-08-11T13:08:12.703Z,100554.75
2017-08-11T13:10:40.123Z,100550.08
2017-08-11T13:13:07.524Z,100542.56
2017-08-11T13:15:34.994Z,100537.70
2017-08-11T13:18:02.431Z,100533.03
2017-08-11T13:20:29.831Z,100525.45
2017-08-11T13:22:57.227Z,100516.75
2017-08-11T13:25:24.643Z,100514.21
2017-08-11T13:27:52.044Z,100516.02
2017-08-11T13:30:19.451Z,100513.77
2017-08-11T13:32:46.866Z,100516.06
2017-08-11T13:35:14.264Z,100509.47
2017-08-11T13:37:41.664Z,100511.32
2017-08-11T13:40:09.096Z,100520.33
2017-08-11T13:42:36.495Z,100520.11
2017-08-11T13:45:03.890Z,100523.36
2017-08-11T13:47:31.308Z,100516.84
2017-08-11T13:49:58.706Z,100520.59
2017-08-11T13:52:26.103Z,100524.29
2017-08-11T13:54:53.515Z,100529.09
2017-08-11T13:57:20.915Z,100526.47
2017-08-11T13:59:48.327Z,100531.56
2017-08-11T14:02:15.742Z,100531.91
2017-08-11T14:04:43.139Z,100528.40
2017-08-11T14:07:10.531Z,100530.79
2017-08-11T14:09:37.947Z,100537.95
2017-08-11T14:12:05.348Z,100542.27
2017-08-11T14:14:33.691Z,100541.20
2017-08-11T14:17:01.271Z,100541.92
2017-08-11T14:19:28.663Z,100538.56
2017-08-11T14:21:56.075Z,100537.16
2017-08-11T14:24:28.987Z,100540.78
2017-08-11T14:26:56.394Z,100536.45
2017-08-11T14:29:23.815Z,100528.01
2017-08-11T14:31:51.275Z,100534.51
2017-08-11T14:34:18.761Z,100541.32
2017-08-11T14:36:46.146Z,100530.52
2017-08-11T14:39:13.571Z,100534.74
2017-08-11T14:41:40.973Z,100529.66
2017-08-11T14:44:08.409Z,100532.77
2017-08-11T14:46:35.835Z,100538.28
2017-08-11T14:49:03.267Z,100530.27
2017-08-11T14:51:30.655Z,100530.62
2017-08-11T14:53:58.099Z,100530.02
2017-08-11T14:56:25.528Z,100534.17
2017-08-11T14:58:52.955Z,100526.11
2017-08-11T15:01:20.363Z,100534.39
2017-08-11T15:03:47.822Z,100535.13
2017-08-11T15:06:15.235Z,100532.86
2017-08-11T15:08:42.702Z,100528.06
2017-08-11T15:11:10.137Z,100527.54
2017-08-11T15:13:37.546Z,100523.20
2017-08-11T15:16:05.022Z,100530.81
2017-08-11T15:18:32.452Z,100527.64
2017-08-11T15:20:59.860Z,100521.63
2017-08-11T15:23:27.292Z,100523.98
2017-08-11T15:25:54.686Z,100526.11
2017-08-11T15:28:22.111Z,100522.63
2017-08-11T15:30:49.546Z,100519.44
2017-08-11T15:33:16.958Z,100522.31
2017-08-11T15:35:44.385Z,100513.19
2017-08-11T15:38:11.837Z,100510.78
2017-08-11T15:40:39.235Z,100511.06
2017-08-11T15:43:06.670Z,100507.84
2017-08-11T15:45:34.883Z,100506.28
2017-08-11T15:48:02.299Z,100508.28
2017-08-11T15:50:29.703Z,100497.90
2017-08-11T15:52:57.142Z,100502.45
2017-08-11T15:55:24.545Z,100507.72
2017-08-11T15:57:51.943Z,100501.81
2017-08-11T16:00:19.371Z,100504.94
2017-08-11T16:02:46.771Z,100502.45
2017-08-11T16:05:14.196Z,100497.98
2017-08-11T16:07:41.664Z,100490.55
2017-08-11T16:10:09.105Z,100493.02
2017-08-11T16:12:36.547Z,100492.24
2017-08-11T16:15:04.011Z,100492.76
2017-08-11T16:17:31.423Z,100495.37
2017-08-11T16:19:58.850Z,100492.49
2017-08-11T16:22:26.291Z,100482.91
2017-08-11T16:24:53.712Z,100480.31
2017-08-11T16:27:21.139Z,100480.70
2017-08-11T16:29:48.551Z,100478.44
2017-08-11T16:32:15.949Z,100472.34
2017-08-11T16:34:43.392Z,100472.42
2017-08-11T16:37:10.835Z,100473.36
2017-08-11T16:39:38.279Z,100476.38
2017-08-11T16:42:05.663Z,100474.33
2017-08-11T16:44:33.099Z,100474.16
2017-08-11T16:47:00.546Z,100474.11
2017-08-11T16:49:28.047Z,100468.81
2017-08-11T16:51:55.594Z,100472.72
2017-08-11T16:54:22.995Z,100466.48
2017-08-11T16:56:50.412Z,100464.44
2017-08-11T16:59:17.821Z,100468.27
2017-08-11T17:01:45.259Z,100467.95
2017-08-11T17:04:12.667Z,100469.30
2017-08-11T17:06:40.103Z,100464.31
2017-08-11T17:09:07.507Z,100468.36
2017-08-11T17:11:34.956Z,100471.25
2017-08-11T17:14:02.368Z,100466.78
2017-08-11T17:16:29.787Z,100463.86
2017-08-11T17:18:57.247Z,100462.09
2017-08-11T17:21:24.664Z,100458.00
2017-08-11T17:23:52.156Z,100454.78
2017-08-11T17:26:19.572Z,100453.39
2017-08-11T17:28:47.023Z,100450.52
2017-08-11T17:31:14.451Z,100445.44
2017-08-11T17:33:41.868Z,100441.48
2017-08-11T17:36:09.331Z,100448.23
2017-08-11T17:38:36.731Z,100444.42
2017-08-11T17:41:04.168Z,100441.82
2017-08-11T17:43:31.586Z,100439.41
2017-08-11T17:45:59.029Z,100439.78
2017-08-11T17:48:26.419Z,100439.78
2017-08-11T17:50:53.858Z,100442.73
2017-08-11T17:53:21.335Z,100440.83
2017-08-11T17:55:48.727Z,100436.98
2017-08-11T17:58:16.165Z,100432.38
2017-08-11T18:00:43.571Z,100425.83
2017-08-11T18:03:10.997Z,100429.41
2017-08-11T18:05:38.411Z,100426.70
2017-08-11T18:08:05.839Z,100430.52
2017-08-11T18:10:33.267Z,100433.61
2017-08-11T18:13:00.691Z,100431.56
2017-08-11T18:15:28.121Z,100432.73
2017-08-11T18:17:55.523Z,100428.59
2017-08-11T18:20:22.950Z,100422.64
2017-08-11T18:22:50.392Z,100424.74
2017-08-11T18:25:17.828Z,100420.79
2017-08-11T18:27:45.267Z,100425.25
2017-08-11T18:30:12.668Z,100414.73
2017-08-11T18:32:40.091Z,100410.23
2017-08-11T18:35:07.507Z,100414.37
2017-08-11T18:37:34.947Z,100404.98
2017-08-11T18:40:02.348Z,100404.98
2017-08-11T18:42:29.764Z,100404.61
2017-08-11T18:44:57.164Z,100401.81
2017-08-11T18:47:24.619Z,100411.75
2017-08-11T18:49:52.063Z,100405.11
2017-08-11T18:52:19.491Z,100406.92
2017-08-11T18:54:46.895Z,100411.00
2017-08-11T18:57:14.307Z,100406.87
2017-08-11T18:59:41.711Z,100401.63
2017-08-11T19:02:09.108Z,100399.81
2017-08-11T19:04:36.519Z,100408.31
2017-08-11T19:07:03.918Z,100409.94
2017-08-11T19:09:31.316Z,100414.54
2017-08-11T19:11:58.731Z,100414.67
2017-08-11T19:14:26.127Z,100416.02
2017-08-11T19:16:53.530Z,100420.71
2017-08-11T19:19:20.939Z,100414.62
2017-08-11T19:21:48.347Z,100418.67
2017-08-11T19:24:15.743Z,100414.16
2017-08-11T19:26:43.153Z,100414.39
2017-08-11T19:29:10.551Z,100413.98
2017-08-11T19:31:37.951Z,100411.15
2017-08-11T19:34:05.371Z,100413.66
2017-08-11T19:36:32.774Z,100422.89
2017-08-11T19:39:00.171Z,100422.61
2017-08-11T19:41:27.587Z,100417.78
2017-08-11T19:43:54.983Z,100413.44
2017-08-11T19:46:22.378Z,100418.36
2017-08-11T19:48:49.786Z,100412.05
2017-08-11T19:51:17.204Z,100414.88
2017-08-11T19:53:44.608Z,100417.25
2017-08-11T19:56:12.029Z,100409.25
2017-08-11T19:58:39.427Z,100412.33
2017-08-11T20:01:06.827Z,100410.84
2017-08-11T20:03:34.243Z,100414.59
2017-08-11T20:06:01.653Z,100409.91
2017-08-11T20:08:29.050Z,100408.56
2017-08-11T20:10:56.464Z,100413.02
2017-08-11T20:13:23.865Z,100416.27
2017-08-11T20:15:51.269Z,100418.63
2017-08-11T20:18:18.696Z,100427.49
2017-08-11T20:20:46.094Z,100427.26
2017-08-11T20:23:13.492Z,100432.25
2017-08-11T20:25:40.908Z,100429.73
2017-08-11T20:28:08.308Z,100426.68
2017-08-11T20:30:35.714Z,100430.23
2017-08-11T20:33:03.396Z,100436.69
2017-08-11T20:35:30.795Z,100434.92
2017-08-11T20:37:58.218Z,100430.19
2017-08-11T20:40:25.624Z,100426.09
2017-08-11T20:42:53.017Z,100435.29
2017-08-11T20:45:20.422Z,100439.74
2017-08-11T20:47:47.865Z,100443.60
2017-08-11T20:50:15.266Z,100441.84
2017-08-11T20:52:42.662Z,100446.80
2017-08-11T20:55:10.084Z,100449.25
2017-08-11T20:57:37.499Z,100455.48
2017-08-11T21:00:04.900Z,100455.20
2017-08-11T21:02:32.330Z,100453.86
2017-08-11T21:04:59.736Z,100461.16
2017-08-11T21:07:27.136Z,100456.53
2017-08-11T21:09:54.547Z,100457.16
2017-08-11T21:12:21.963Z,100455.30
2017-08-11T21:14:49.360Z,100454.44
2017-08-11T21:17:16.782Z,100459.55
2017-08-11T21:19:44.191Z,100454.18
2017-08-11T21:22:11.591Z,100456.38
2017-08-11T21:24:39.020Z,100455.65
2017-08-11T21:27:06.423Z,100460.41
2017-08-11T21:29:34.014Z,100458.34
2017-08-11T21:32:01.424Z,100465.59
2017-08-11T21:34:28.815Z,100461.92
2017-08-11T21:36:56.254Z,100468.31
2017-08-11T21:39:23.651Z,100468.08
2017-08-11T21:41:51.063Z,100464.13
2017-08-11T21:44:18.446Z,100466.97
2017-08-11T21:46:45.879Z,100468.70
2017-08-11T21:49:13.315Z,100468.70
2017-08-11T21:51:40.720Z,100467.72
2017-08-11T21:54:08.151Z,100467.93
2017-08-11T21:56:35.588Z,100467.05
2017-08-11T21:59:02.994Z,100476.31
2017-08-11T22:01:30.415Z,100472.84
2017-08-11T22:03:57.835Z,100479.77
2017-08-11T22:06:25.265Z,100476.73
2017-08-11T22:08:52.671Z,100488.37
2017-08-11T22:11:20.098Z,100490.78
2017-08-11T22:13:47.505Z,100490.70
2017-08-11T22:16:14.930Z,100492.25
2017-08-11T22:18:42.343Z,100492.62
2017-08-11T22:21:09.735Z,100490.63
2017-08-11T22:23:37.156Z,100489.13
2017-08-11T22:26:04.558Z,100489.41
2017-08-11T22:28:31.999Z,100490.05
2017-08-11T22:30:59.432Z,100488.30
2017-08-11T22:33:26.838Z,100491.92
2017-08-11T22:35:54.266Z,100486.25
2017-08-11T22:38:21.683Z,100487.49
2017-08-11T22:40:49.088Z,100486.44
2017-08-11T22:43:16.499Z,100486.36
2017-08-11T22:45:43.962Z,100483.41
2017-08-11T22:48:11.371Z,100481.63
2017-08-11T22:50:38.770Z,100477.37
2017-08-11T22:53:06.200Z,100478.52
2017-08-11T22:55:33.925Z,100471.91
2017-08-11T22:58:01.315Z,100462.98
2017-08-11T23:00:28.730Z,100463.41
2017-08-11T23:02:56.163Z,100466.12
2017-08-11T23:05:23.594Z,100467.48
2017-08-11T23:07:51.006Z,100468.91
2017-08-11T23:10:18.425Z,100469.96
2017-08-11T23:12:45.819Z,100470.89
2017-08-11T23:15:13.255Z,100470.61
2017-08-11T23:17:40.655Z,100467.14
2017-08-11T23:20:08.063Z,100461.17
2017-08-11T23:22:35.480Z,100460.60
2017-08-11T23:25:02.884Z,100464.44
2017-08-11T23:27:30.279Z,100472.14
2017-08-11T23:29:57.707Z,100470.53
2017-08-11T23:32:25.111Z,100469.58
2017-08-11T23:34:52.511Z,100472.72
2017-08-11T23:37:19.923Z,100468.59
2017-08-11T23:39:47.332Z,100460.59
2017-08-11T23:42:14.731Z,100451.28
2017-08-11T23:44:42.151Z,100449.94
2017-08-11T23:47:09.550Z,100453.61
2017-08-11T23:49:36.948Z,100454.03
2017-08-11T23:52:04.396Z,100451.43
2017-08-11T23:54:31.799Z,100450.48
2017-08-11T23:56:59.226Z,100451.72
2017-08-11T23:59:26.647Z,100453.12
